createdAt,value
2019-02-17T00:00:12.022Z,19.4
2019-02-17T00:01:01.835Z,19.4
2019-02-17T00:01:51.892Z,19.4
2019-02-17T00:02:42.205Z,19.4
2019-02-17T00:03:32.011Z,19.4
2019-02-17T00:04:22.048Z,19.4
2019-02-17T00:05:11.610Z,19.4
2019-02-17T00:06:02.769Z,19.4
2019-02-17T00:06:52.985Z,19.5
2019-02-17T00:07:42.493Z,19.4
2019-02-17T00:08:31.808Z,19.4
2019-02-17T00:09:22.485Z,19.4
2019-02-17T00:10:12.387Z,19.4
2019-02-17T00:11:03.270Z,19.4
2019-02-17T00:11:52.587Z,19.4
2019-02-17T00:12:42.902Z,19.4
2019-02-17T00:13:32.147Z,19.4
2019-02-17T00:14:25.887Z,19.4
2019-02-17T00:15:13.020Z,19.4
2019-02-17T00:16:03.145Z,19.4
2019-02-17T00:16:53.945Z,19.4
2019-02-17T00:17:44.022Z,19.4
2019-02-17T00:18:33.286Z,19.4
2019-02-17T00:19:23.877Z,19.4
2019-02-17T00:20:13.694Z,19.4
2019-02-17T00:21:03.442Z,19.4
2019-02-17T00:21:53.484Z,19.4
2019-02-17T00:22:43.794Z,19.5
2019-02-17T00:23:33.862Z,19.4
2019-02-17T00:24:23.919Z,19.4
2019-02-17T00:25:13.524Z,19.4
2019-02-17T00:26:04.049Z,19.4
2019-02-17T00:26:53.576Z,19.4
2019-02-17T00:27:44.148Z,19.4
2019-02-17T00:28:34.195Z,19.4
2019-02-17T00:29:24.838Z,19.4
2019-02-17T00:30:14.591Z,19.4
2019-02-17T00:31:04.407Z,19.4
2019-02-17T00:31:54.488Z,19.4
2019-02-17T00:32:44.779Z,19.4
2019-02-17T00:33:34.056Z,19.5
2019-02-17T00:34:24.949Z,19.4
2019-02-17T00:35:13.906Z,19.4
2019-02-17T00:36:04.793Z,19.4
2019-02-17T00:36:54.525Z,19.5
2019-02-17T00:37:45.128Z,19.4
2019-02-17T00:38:35.507Z,19.4
2019-02-17T00:39:24.961Z,19.4
2019-02-17T00:40:15.298Z,19.4
2019-02-17T00:41:05.120Z,19.4
2019-02-17T00:41:55.130Z,19.4
2019-02-17T00:42:44.908Z,19.4
2019-02-17T00:43:35.039Z,19.4
2019-02-17T00:44:25.643Z,19.4
2019-02-17T00:45:15.113Z,19.4
2019-02-17T00:46:05.415Z,19.4
2019-02-17T00:46:56.143Z,19.4
2019-02-17T00:47:45.000Z,19.4
2019-02-17T00:48:35.598Z,19.4
2019-02-17T00:49:25.691Z,19.4
2019-02-17T00:50:16.040Z,19.4
2019-02-17T00:51:06.037Z,19.4
2019-02-17T00:51:55.863Z,19.4
2019-02-17T00:52:45.659Z,19.4
2019-02-17T00:53:35.997Z,19.4
2019-02-17T00:54:26.277Z,19.4
2019-02-17T00:55:16.610Z,19.4
2019-02-17T00:56:06.175Z,19.4
2019-02-17T00:56:55.912Z,19.4
2019-02-17T00:57:46.247Z,19.4
2019-02-17T00:58:36.847Z,19.5
2019-02-17T00:59:26.942Z,19.4
2019-02-17T01:00:16.454Z,19.4
2019-02-17T01:01:06.173Z,19.4
2019-02-17T01:01:56.035Z,19.4
2019-02-17T01:02:46.858Z,19.4
2019-02-17T01:03:36.720Z,19.4
2019-02-17T01:04:26.975Z,19.4
2019-02-17T01:05:17.115Z,19.4
2019-02-17T01:06:05.749Z,19.4
2019-02-17T01:06:56.915Z,19.4
2019-02-17T01:07:46.947Z,19.4
2019-02-17T01:08:36.977Z,19.4
2019-02-17T01:09:27.320Z,19.4
2019-02-17T01:10:17.482Z,19.4
2019-02-17T01:11:06.960Z,19.4
2019-02-17T01:11:56.952Z,19.4
2019-02-17T01:12:46.993Z,19.4
2019-02-17T01:13:37.913Z,19.4
2019-02-17T01:14:27.387Z,19.5
2019-02-17T01:15:17.352Z,19.4
2019-02-17T01:16:06.394Z,19.4
2019-02-17T01:16:57.145Z,19.4
2019-02-17T01:17:46.849Z,19.4
2019-02-17T01:18:37.461Z,19.4
2019-02-17T01:19:28.297Z,19.4
2019-02-17T01:20:17.803Z,19.5
2019-02-17T01:21:07.563Z,19.4
2019-02-17T01:21:58.469Z,19.4
2019-02-17T01:22:48.241Z,19.5
2019-02-17T01:23:38.001Z,19.4
2019-02-17T01:24:27.251Z,19.4
2019-02-17T01:25:18.702Z,19.4
2019-02-17T01:26:08.463Z,19.4
2019-02-17T01:26:57.983Z,19.4
2019-02-17T01:27:48.334Z,19.4
2019-02-17T01:28:38.367Z,19.4
2019-02-17T01:29:28.483Z,19.5
2019-02-17T01:30:19.053Z,19.4
2019-02-17T01:31:11.053Z,19.4
2019-02-17T01:31:58.591Z,19.4
2019-02-17T01:32:48.945Z,19.4
2019-02-17T01:33:38.979Z,19.5
2019-02-17T01:34:29.051Z,19.4
2019-02-17T01:35:18.835Z,19.5
2019-02-17T01:36:08.382Z,19.4
2019-02-17T01:36:58.404Z,19.4
2019-02-17T01:37:49.565Z,19.4
2019-02-17T01:38:39.402Z,19.4
2019-02-17T01:39:29.126Z,19.4
2019-02-17T01:40:17.797Z,19.4
2019-02-17T01:41:09.504Z,19.4
2019-02-17T01:41:59.312Z,19.5
2019-02-17T01:42:49.369Z,19.5
2019-02-17T01:43:39.730Z,19.5
2019-02-17T01:44:28.666Z,19.4
2019-02-17T01:45:20.148Z,19.4
2019-02-17T01:46:09.634Z,19.5
2019-02-17T01:46:59.914Z,19.4
2019-02-17T01:47:49.967Z,19.4
2019-02-17T01:48:40.031Z,19.5
2019-02-17T01:49:30.134Z,19.4
2019-02-17T01:50:19.957Z,19.4
2019-02-17T01:51:09.709Z,19.4
2019-02-17T01:52:00.519Z,19.4
2019-02-17T01:52:50.090Z,19.4
2019-02-17T01:53:39.844Z,19.5
2019-02-17T01:54:30.505Z,19.5
2019-02-17T01:55:20.249Z,19.5
2019-02-17T01:56:09.767Z,19.5
2019-02-17T01:57:00.637Z,19.5
2019-02-17T01:57:50.388Z,19.5
2019-02-17T01:58:39.892Z,19.5
2019-02-17T01:59:36.189Z,19.4
2019-02-17T02:00:20.097Z,19.4
2019-02-17T02:01:10.392Z,19.5
2019-02-17T02:02:00.153Z,19.5
2019-02-17T02:02:51.010Z,19.5
2019-02-17T02:03:41.357Z,19.4
2019-02-17T02:04:31.132Z,19.4
2019-02-17T02:05:20.711Z,19.5
2019-02-17T02:06:09.649Z,19.5
2019-02-17T02:07:00.267Z,19.4
2019-02-17T02:07:50.309Z,19.4
2019-02-17T02:08:40.984Z,19.5
2019-02-17T02:09:30.474Z,19.5
2019-02-17T02:10:19.941Z,19.5
2019-02-17T02:11:11.321Z,19.4
2019-02-17T02:12:01.641Z,19.5
2019-02-17T02:12:51.158Z,19.5
2019-02-17T02:13:41.228Z,19.5
2019-02-17T02:14:31.554Z,19.4
2019-02-17T02:15:21.952Z,19.4
2019-02-17T02:16:10.958Z,19.4
2019-02-17T02:17:01.339Z,19.5
2019-02-17T02:17:51.646Z,19.4
2019-02-17T02:18:41.660Z,19.4
2019-02-17T02:19:31.132Z,19.5
2019-02-17T02:20:21.475Z,19.5
2019-02-17T02:21:12.290Z,19.5
2019-02-17T02:22:02.435Z,19.4
2019-02-17T02:22:51.544Z,19.5
2019-02-17T02:23:41.632Z,19.5
2019-02-17T02:24:32.532Z,19.5
2019-02-17T02:25:22.595Z,19.4
2019-02-17T02:26:12.907Z,19.5
2019-02-17T02:27:02.429Z,19.4
2019-02-17T02:27:52.487Z,19.5
2019-02-17T02:28:42.519Z,19.4
2019-02-17T02:29:42.494Z,19.4
2019-02-17T02:30:22.295Z,19.4
2019-02-17T02:31:12.512Z,19.4
2019-02-17T02:32:02.267Z,19.4
2019-02-17T02:32:52.868Z,19.4
2019-02-17T02:33:42.374Z,19.4
2019-02-17T02:34:32.648Z,19.5
2019-02-17T02:35:23.018Z,19.5
2019-02-17T02:36:12.547Z,19.4
2019-02-17T02:37:03.869Z,19.5
2019-02-17T02:37:52.656Z,19.5
2019-02-17T02:38:42.776Z,19.5
2019-02-17T02:39:33.286Z,19.5
2019-02-17T02:40:24.011Z,19.4
2019-02-17T02:41:13.677Z,19.5
2019-02-17T02:42:03.238Z,19.5
2019-02-17T02:42:53.840Z,19.4
2019-02-17T02:43:43.590Z,19.5
2019-02-17T02:44:33.679Z,19.5
2019-02-17T02:45:23.433Z,19.5
2019-02-17T02:46:13.780Z,19.5
2019-02-17T02:47:04.385Z,19.5
2019-02-17T02:47:53.585Z,19.5
2019-02-17T02:48:43.688Z,19.5
2019-02-17T02:49:33.712Z,19.5
2019-02-17T02:50:24.649Z,19.4
2019-02-17T02:51:14.690Z,19.5
2019-02-17T02:52:04.719Z,19.5
2019-02-17T02:52:53.735Z,19.4
2019-02-17T02:53:44.441Z,19.5
2019-02-17T02:54:34.636Z,19.4
2019-02-17T02:55:23.867Z,19.5
2019-02-17T02:56:14.999Z,19.5
2019-02-17T02:57:04.564Z,19.5
2019-02-17T02:57:53.801Z,19.5
2019-02-17T02:58:44.694Z,19.5
2019-02-17T02:59:34.160Z,19.5
2019-02-17T03:00:25.395Z,19.5
2019-02-17T03:01:15.147Z,19.5
2019-02-17T03:02:04.347Z,19.5
2019-02-17T03:02:55.523Z,19.5
2019-02-17T03:03:48.470Z,19.5
2019-02-17T03:04:35.596Z,19.5
2019-02-17T03:08:07.818Z,19.4
2019-02-17T03:08:57.616Z,19.4
2019-02-17T03:09:47.343Z,19.5
2019-02-17T03:10:37.429Z,19.4
2019-02-17T03:11:28.031Z,19.5
2019-02-17T03:12:17.798Z,19.4
2019-02-17T03:13:08.127Z,19.5
2019-02-17T03:13:57.733Z,19.5
2019-02-17T03:14:47.128Z,19.4
2019-02-17T03:15:37.449Z,19.4
2019-02-17T03:16:27.770Z,19.5
2019-02-17T03:17:17.669Z,19.5
2019-02-17T03:18:08.212Z,19.5
2019-02-17T03:18:57.679Z,19.5
2019-02-17T03:19:47.782Z,19.4
2019-02-17T03:20:38.612Z,19.5
2019-02-17T03:21:28.698Z,19.4
2019-02-17T03:22:18.828Z,19.5
2019-02-17T03:23:08.794Z,19.4
2019-02-17T03:23:58.026Z,19.5
2019-02-17T03:24:48.125Z,19.5
2019-02-17T03:25:38.158Z,19.5
2019-02-17T03:26:28.830Z,19.5
2019-02-17T03:27:18.944Z,19.4
2019-02-17T03:28:08.616Z,19.5
2019-02-17T03:28:59.241Z,19.5
2019-02-17T03:29:49.280Z,19.4
2019-02-17T03:30:39.550Z,19.5
2019-02-17T03:31:29.633Z,19.5
2019-02-17T03:32:19.427Z,19.5
2019-02-17T03:33:09.126Z,19.5
2019-02-17T03:33:59.126Z,19.5
2019-02-17T03:34:49.337Z,19.5
2019-02-17T03:35:39.545Z,19.5
2019-02-17T03:36:29.437Z,19.5
2019-02-17T03:37:20.058Z,19.5
2019-02-17T03:38:10.110Z,19.4
2019-02-17T03:38:59.631Z,19.4
2019-02-17T03:39:49.798Z,19.4
2019-02-17T03:40:39.168Z,19.5
2019-02-17T03:41:30.362Z,19.5
2019-02-17T03:42:19.555Z,19.5
2019-02-17T03:43:10.202Z,19.4
2019-02-17T03:44:00.294Z,19.4
2019-02-17T03:44:50.295Z,19.5
2019-02-17T03:45:39.817Z,19.5
2019-02-17T03:46:30.139Z,19.5
2019-02-17T03:47:20.013Z,19.4
2019-02-17T03:48:10.012Z,19.4
2019-02-17T03:49:00.276Z,19.5
2019-02-17T03:49:50.679Z,19.5
2019-02-17T03:50:39.864Z,19.5
2019-02-17T03:51:30.464Z,19.4
2019-02-17T03:52:20.269Z,19.5
2019-02-17T03:53:10.563Z,19.5
2019-02-17T03:54:00.082Z,19.5
2019-02-17T03:54:51.012Z,19.4
2019-02-17T03:55:41.354Z,19.5
2019-02-17T03:56:31.153Z,19.5
2019-02-17T03:57:21.445Z,19.5
2019-02-17T03:58:10.125Z,19.5
2019-02-17T03:59:01.083Z,19.5
2019-02-17T03:59:51.623Z,19.5
2019-02-17T04:00:40.545Z,19.5
2019-02-17T04:01:31.275Z,19.5
2019-02-17T04:02:21.208Z,19.5
2019-02-17T04:03:10.988Z,19.5
2019-02-17T04:04:01.423Z,19.5
2019-02-17T04:04:51.119Z,19.5
2019-02-17T04:05:40.696Z,19.5
2019-02-17T04:06:31.539Z,19.5
2019-02-17T04:07:21.580Z,19.5
2019-02-17T04:08:11.898Z,19.5
2019-02-17T04:09:01.782Z,19.5
2019-02-17T04:09:52.396Z,19.5
2019-02-17T04:10:41.559Z,19.5
2019-02-17T04:11:31.996Z,19.5
2019-02-17T04:12:21.916Z,19.5
2019-02-17T04:13:11.968Z,19.5
2019-02-17T04:14:01.808Z,19.4
2019-02-17T04:14:52.367Z,19.4
2019-02-17T04:15:42.152Z,19.5
2019-02-17T04:16:32.800Z,19.5
2019-02-17T04:17:22.589Z,19.4
2019-02-17T04:18:12.029Z,19.4
2019-02-17T04:19:01.788Z,19.5
2019-02-17T04:19:52.169Z,19.5
2019-02-17T04:20:42.529Z,19.5
2019-02-17T04:21:35.669Z,19.5
2019-02-17T04:22:22.909Z,19.5
2019-02-17T04:23:12.372Z,19.5
2019-02-17T04:24:02.154Z,19.4
2019-02-17T04:24:51.944Z,19.5
2019-02-17T04:25:42.963Z,19.5
2019-02-17T04:26:32.624Z,19.5
2019-02-17T04:27:22.982Z,19.4
2019-02-17T04:28:13.072Z,19.5
2019-02-17T04:29:03.455Z,19.4
2019-02-17T04:29:53.426Z,19.5
2019-02-17T04:30:43.079Z,19.4
2019-02-17T04:31:33.298Z,19.4
2019-02-17T04:32:23.336Z,19.5
2019-02-17T04:33:13.072Z,19.5
2019-02-17T04:34:03.250Z,19.5
2019-02-17T04:34:53.194Z,19.5
2019-02-17T04:35:43.629Z,19.5
2019-02-17T04:36:33.310Z,19.4
2019-02-17T04:37:23.661Z,19.5
2019-02-17T04:38:13.980Z,19.5
2019-02-17T04:39:03.507Z,19.5
2019-02-17T04:39:54.487Z,19.5
2019-02-17T04:40:43.860Z,19.4
2019-02-17T04:41:34.213Z,19.4
2019-02-17T04:42:23.991Z,19.4
2019-02-17T04:43:13.871Z,19.5
2019-02-17T04:44:03.563Z,19.5
2019-02-17T04:44:54.441Z,19.4
2019-02-17T04:45:43.966Z,19.4
2019-02-17T04:46:34.631Z,19.5
2019-02-17T04:47:23.801Z,19.5
2019-02-17T04:48:14.648Z,19.5
2019-02-17T04:49:05.083Z,19.4
2019-02-17T04:49:54.894Z,19.4
2019-02-17T04:50:44.828Z,19.5
2019-02-17T04:51:33.755Z,19.5
2019-02-17T04:52:24.955Z,19.4
2019-02-17T04:53:15.008Z,19.5
2019-02-17T04:54:04.807Z,19.5
2019-02-17T04:54:55.099Z,19.4
2019-02-17T04:55:44.665Z,19.4
2019-02-17T04:56:35.297Z,19.5
2019-02-17T04:57:24.802Z,19.5
2019-02-17T04:58:14.813Z,19.4
2019-02-17T04:59:05.175Z,19.4
2019-02-17T04:59:54.913Z,19.4
2019-02-17T05:00:46.350Z,19.5
2019-02-17T05:01:35.065Z,19.5
2019-02-17T05:02:25.673Z,19.5
2019-02-17T05:03:14.872Z,19.5
2019-02-17T05:04:05.220Z,19.4
2019-02-17T05:04:55.265Z,19.5
2019-02-17T05:05:45.990Z,19.4
2019-02-17T05:06:35.811Z,19.5
2019-02-17T05:07:25.834Z,19.5
2019-02-17T05:08:16.051Z,19.5
2019-02-17T05:09:05.892Z,19.5
2019-02-17T05:09:55.699Z,19.4
2019-02-17T05:10:45.772Z,19.5
2019-02-17T05:11:36.324Z,19.4
2019-02-17T05:12:25.792Z,19.5
2019-02-17T05:13:15.628Z,19.4
2019-02-17T05:14:06.463Z,19.5
2019-02-17T05:14:55.704Z,19.4
2019-02-17T05:15:46.309Z,19.5
2019-02-17T05:16:36.337Z,19.4
2019-02-17T05:17:26.677Z,19.5
2019-02-17T05:18:16.467Z,19.5
2019-02-17T05:19:06.596Z,19.4
2019-02-17T05:19:56.025Z,19.5
2019-02-17T05:20:46.430Z,19.5
2019-02-17T05:21:36.698Z,19.4
2019-02-17T05:22:26.169Z,19.5
2019-02-17T05:23:16.537Z,19.5
2019-02-17T05:24:06.937Z,19.5
2019-02-17T05:24:56.672Z,19.5
2019-02-17T05:25:47.002Z,19.5
2019-02-17T05:26:36.478Z,19.5
2019-02-17T05:27:27.173Z,19.5
2019-02-17T05:28:16.881Z,19.5
2019-02-17T05:29:07.486Z,19.5
2019-02-17T05:29:57.038Z,19.5
2019-02-17T05:30:58.358Z,19.4
2019-02-17T05:31:37.131Z,19.5
2019-02-17T05:32:27.157Z,19.5
2019-02-17T05:33:16.966Z,19.5
2019-02-17T05:34:07.053Z,19.5
2019-02-17T05:35:00.851Z,19.5
2019-02-17T05:35:47.733Z,19.5
2019-02-17T05:36:37.997Z,19.5
2019-02-17T05:37:28.088Z,19.4
2019-02-17T05:38:17.918Z,19.5
2019-02-17T05:39:07.660Z,19.4
2019-02-17T05:39:58.016Z,19.4
2019-02-17T05:40:48.575Z,19.4
2019-02-17T05:41:38.380Z,19.5
2019-02-17T05:42:28.396Z,19.5
2019-02-17T05:43:17.183Z,19.5
2019-02-17T05:44:08.023Z,19.4
2019-02-17T05:44:58.330Z,19.4
2019-02-17T05:45:48.986Z,19.5
2019-02-17T05:46:38.718Z,19.4
2019-02-17T05:47:28.465Z,19.4
2019-02-17T05:48:18.515Z,19.5
2019-02-17T05:49:08.353Z,19.4
2019-02-17T05:49:58.917Z,19.4
2019-02-17T05:50:48.538Z,19.5
2019-02-17T05:51:38.529Z,19.4
2019-02-17T05:52:28.324Z,19.5
2019-02-17T05:53:18.894Z,19.4
2019-02-17T05:54:09.218Z,19.5
2019-02-17T05:54:58.994Z,19.5
2019-02-17T05:55:49.064Z,19.4
2019-02-17T05:56:39.356Z,19.4
2019-02-17T05:57:29.412Z,19.4
2019-02-17T05:58:19.207Z,19.4
2019-02-17T05:59:09.264Z,19.4
2019-02-17T05:59:59.014Z,19.4
2019-02-17T06:00:49.418Z,19.4
2019-02-17T06:01:39.740Z,19.4
2019-02-17T06:02:28.442Z,19.4
2019-02-17T06:03:19.249Z,19.5
2019-02-17T06:04:09.924Z,19.4
2019-02-17T06:06:07.344Z,19.4
2019-02-17T06:06:56.824Z,19.4
2019-02-17T06:07:47.755Z,19.4
2019-02-17T06:08:37.466Z,19.5
2019-02-17T06:09:27.839Z,19.5
2019-02-17T06:10:17.631Z,19.4
2019-02-17T06:11:06.923Z,19.4
2019-02-17T06:11:58.271Z,19.4
2019-02-17T06:12:48.121Z,19.4
2019-02-17T06:13:37.635Z,19.4
2019-02-17T06:14:28.289Z,19.5
2019-02-17T06:15:17.679Z,19.5
2019-02-17T06:16:08.059Z,19.5
2019-02-17T06:16:58.081Z,19.5
2019-02-17T06:17:47.651Z,19.4
2019-02-17T06:18:37.871Z,19.4
2019-02-17T06:19:28.239Z,19.4
2019-02-17T06:20:18.288Z,19.4
2019-02-17T06:21:08.070Z,19.5
2019-02-17T06:21:58.658Z,19.4
2019-02-17T06:22:47.543Z,19.4
2019-02-17T06:23:38.100Z,19.5
2019-02-17T06:24:28.822Z,19.4
2019-02-17T06:25:18.542Z,19.5
2019-02-17T06:26:08.793Z,19.5
2019-02-17T06:26:59.018Z,19.5
2019-02-17T06:27:49.402Z,19.5
2019-02-17T06:28:39.150Z,19.5
2019-02-17T06:29:29.123Z,19.5
2019-02-17T06:30:19.246Z,19.5
2019-02-17T06:31:19.921Z,19.5
2019-02-17T06:31:59.090Z,19.5
2019-02-17T06:32:48.308Z,19.5
2019-02-17T06:33:38.367Z,19.5
2019-02-17T06:34:29.230Z,19.5
2019-02-17T06:35:19.609Z,19.5
2019-02-17T06:36:09.452Z,19.4
2019-02-17T06:36:59.149Z,19.5
2019-02-17T06:37:49.192Z,19.5
2019-02-17T06:38:38.996Z,19.5
2019-02-17T06:39:29.353Z,19.5
2019-02-17T06:40:18.839Z,19.5
2019-02-17T06:41:09.745Z,19.5
2019-02-17T06:42:00.077Z,19.5
2019-02-17T06:42:50.487Z,19.5
2019-02-17T06:43:40.212Z,19.5
2019-02-17T06:44:29.494Z,19.5
2019-02-17T06:45:22.431Z,19.5
2019-02-17T06:46:10.118Z,19.5
2019-02-17T06:46:59.627Z,19.5
2019-02-17T06:47:50.707Z,19.5
2019-02-17T06:48:40.017Z,19.5
2019-02-17T06:49:29.789Z,19.5
2019-02-17T06:50:20.104Z,19.5
2019-02-17T06:51:10.933Z,19.5
2019-02-17T06:52:00.751Z,19.5
2019-02-17T06:52:50.240Z,19.5
2019-02-17T06:53:41.164Z,19.5
2019-02-17T06:54:30.123Z,19.5
2019-02-17T06:55:20.197Z,19.5
2019-02-17T06:56:13.428Z,19.5
2019-02-17T06:56:59.968Z,19.5
2019-02-17T06:57:50.296Z,19.5
2019-02-17T06:58:41.506Z,19.6
2019-02-17T06:59:31.229Z,19.5
2019-02-17T07:00:20.195Z,19.5
2019-02-17T07:01:11.354Z,19.5
2019-02-17T07:02:01.121Z,19.5
2019-02-17T07:02:51.203Z,19.5
2019-02-17T07:03:41.979Z,19.5
2019-02-17T07:06:06.948Z,26.5
2019-02-17T07:06:57.253Z,28.6
2019-02-17T07:07:46.949Z,30.9
2019-02-17T07:08:37.345Z,32.1
2019-02-17T07:09:27.288Z,32.3
2019-02-17T07:10:17.600Z,31
2019-02-17T07:11:07.093Z,30.2
2019-02-17T07:12:00.434Z,29.8
2019-02-17T07:12:48.598Z,29.4
2019-02-17T07:13:37.485Z,29.3
2019-02-17T07:14:28.364Z,29.1
2019-02-17T07:15:17.593Z,28.9
2019-02-17T07:16:08.207Z,28.6
2019-02-17T07:16:57.704Z,28.5
2019-02-17T07:17:48.042Z,28.3
2019-02-17T07:18:38.647Z,28.1
2019-02-17T07:19:27.882Z,27.9
2019-02-17T07:21:08.282Z,27.6
2019-02-17T07:21:57.480Z,27.5
2019-02-17T07:22:48.462Z,26.8
2019-02-17T07:23:38.825Z,30.1
2019-02-17T07:24:29.087Z,30.6
2019-02-17T07:25:29.249Z,32.2
2019-02-17T07:26:08.882Z,34.2
2019-02-17T07:26:58.994Z,34.9
2019-02-17T07:27:49.287Z,35.2
2019-02-17T07:28:39.037Z,35.1
2019-02-17T07:29:28.441Z,34.8
2019-02-17T07:30:19.172Z,34.8
2019-02-17T07:31:09.232Z,34.9
2019-02-17T07:31:59.319Z,35
2019-02-17T07:32:49.344Z,35.3
2019-02-17T07:33:38.926Z,35.6
2019-02-17T07:34:28.757Z,35.9
2019-02-17T07:35:19.319Z,36.1
2019-02-17T07:36:09.911Z,36.4
2019-02-17T07:36:59.702Z,36.4
2019-02-17T07:37:49.691Z,36.6
2019-02-17T07:38:39.189Z,36.8
2019-02-17T07:39:29.531Z,36.9
2019-02-17T07:40:19.861Z,37.1
2019-02-17T07:41:09.659Z,37.3
2019-02-17T07:41:59.170Z,37.4
2019-02-17T07:42:49.800Z,37.7
2019-02-17T07:43:39.814Z,37.8
2019-02-17T07:44:30.244Z,38
2019-02-17T07:45:20.204Z,38.1
2019-02-17T07:46:10.527Z,38.2
2019-02-17T07:46:59.757Z,38.3
2019-02-17T07:47:50.429Z,38.4
2019-02-17T07:48:40.208Z,38.6
2019-02-17T07:49:30.016Z,38.8
2019-02-17T07:50:19.719Z,38.9
2019-02-17T07:51:09.295Z,39.1
2019-02-17T07:51:59.275Z,39.1
2019-02-17T07:52:50.746Z,39.1
2019-02-17T07:53:40.291Z,39.2
2019-02-17T07:54:29.646Z,39.3
2019-02-17T07:55:20.338Z,39.4
2019-02-17T07:56:10.671Z,39.5
2019-02-17T07:57:00.619Z,39.7
2019-02-17T07:57:49.955Z,39.8
2019-02-17T07:58:40.839Z,39.9
2019-02-17T07:59:30.889Z,40
2019-02-17T08:00:20.707Z,40.2
2019-02-17T08:01:12.123Z,40.3
2019-02-17T08:02:00.764Z,40.4
2019-02-17T08:02:53.340Z,40.6
2019-02-17T08:03:40.633Z,40.7
2019-02-17T08:04:31.485Z,40.9
2019-02-17T08:05:20.750Z,41
2019-02-17T08:06:11.433Z,41.2
2019-02-17T08:07:01.487Z,41.3
2019-02-17T08:07:51.185Z,41.4
2019-02-17T08:08:41.785Z,41.6
2019-02-17T08:09:31.565Z,41.8
2019-02-17T08:10:20.540Z,41.9
2019-02-17T08:11:12.240Z,42.1
2019-02-17T08:12:01.792Z,42.3
2019-02-17T08:12:51.807Z,42.4
2019-02-17T08:13:41.705Z,42.6
2019-02-17T08:14:31.752Z,42.7
2019-02-17T08:15:22.052Z,42.8
2019-02-17T08:16:10.972Z,43
2019-02-17T08:17:01.322Z,43.1
2019-02-17T08:17:52.227Z,43.3
2019-02-17T08:18:42.567Z,43.4
2019-02-17T08:19:32.824Z,43.6
2019-02-17T08:20:22.374Z,43.8
2019-02-17T08:21:12.114Z,43.9
2019-02-17T08:22:02.026Z,44
2019-02-17T08:22:52.091Z,44.2
2019-02-17T08:23:42.565Z,44.3
2019-02-17T08:24:32.367Z,44.4
2019-02-17T08:25:26.996Z,44.6
2019-02-17T08:26:11.901Z,44.7
2019-02-17T08:27:04.526Z,44.8
2019-02-17T08:27:52.856Z,44.9
2019-02-17T08:28:45.289Z,45.1
2019-02-17T08:29:32.699Z,45.2
2019-02-17T08:30:22.751Z,45.3
2019-02-17T08:31:13.073Z,45.4
2019-02-17T08:32:02.909Z,45.6
2019-02-17T08:32:53.471Z,45.8
2019-02-17T08:33:42.403Z,45.9
2019-02-17T08:34:33.383Z,46.1
2019-02-17T08:35:22.818Z,46.2
2019-02-17T08:36:13.431Z,46.3
2019-02-17T08:37:03.748Z,46.5
2019-02-17T08:37:53.141Z,46.6
2019-02-17T08:38:43.934Z,46.8
2019-02-17T08:39:33.436Z,46.9
2019-02-17T08:40:23.169Z,47.1
2019-02-17T08:41:14.318Z,47.2
2019-02-17T08:42:02.300Z,47.3
2019-02-17T08:42:54.202Z,47.4
2019-02-17T08:43:43.370Z,47.5
2019-02-17T08:44:33.157Z,47.7
2019-02-17T08:45:24.315Z,47.8
2019-02-17T08:46:13.815Z,48
2019-02-17T08:47:04.456Z,48.1
2019-02-17T08:47:53.110Z,48.3
2019-02-17T08:48:44.014Z,48.4
2019-02-17T08:49:34.040Z,48.6
2019-02-17T08:50:25.550Z,48.8
2019-02-17T08:51:13.694Z,48.9
2019-02-17T08:52:05.990Z,49
2019-02-17T08:52:54.164Z,49.1
2019-02-17T08:53:44.139Z,49.3
2019-02-17T08:54:34.020Z,49.4
2019-02-17T08:55:24.079Z,49.6
2019-02-17T08:56:14.314Z,49.8
2019-02-17T08:57:05.132Z,49.9
2019-02-17T08:57:54.932Z,50.1
2019-02-17T08:58:43.734Z,50.2
2019-02-17T08:59:34.529Z,50.4
2019-02-17T09:00:24.873Z,50.5
2019-02-17T09:01:13.969Z,50.6
2019-02-17T09:02:11.034Z,50.8
2019-02-17T09:02:53.749Z,50.9
2019-02-17T09:03:44.869Z,51
2019-02-17T09:04:35.169Z,51.1
2019-02-17T09:05:25.206Z,51.3
2019-02-17T09:06:14.456Z,51.4
2019-02-17T09:07:07.385Z,51.6
2019-02-17T09:07:55.097Z,51.8
2019-02-17T09:08:44.361Z,51.9
2019-02-17T09:09:34.949Z,52
2019-02-17T09:10:24.807Z,52.1
2019-02-17T09:11:14.797Z,52.3
2019-02-17T09:12:05.659Z,52.4
2019-02-17T09:12:55.712Z,52.5
2019-02-17T09:13:44.523Z,52.6
2019-02-17T09:14:35.671Z,52.8
2019-02-17T09:15:26.299Z,52.9
2019-02-17T09:16:15.161Z,53.1
2019-02-17T09:17:06.295Z,53.2
2019-02-17T09:17:55.793Z,53.3
2019-02-17T09:18:46.150Z,53.4
2019-02-17T09:19:35.906Z,53.6
2019-02-17T09:20:26.618Z,53.6
2019-02-17T09:21:16.320Z,53.8
2019-02-17T09:22:06.165Z,53.9
2019-02-17T09:22:56.148Z,54
2019-02-17T09:23:45.680Z,54.1
2019-02-17T09:24:36.523Z,54.2
2019-02-17T09:25:26.053Z,54.3
2019-02-17T09:26:15.822Z,54.4
2019-02-17T09:27:06.445Z,54.5
2019-02-17T09:27:56.212Z,54.7
2019-02-17T09:28:46.814Z,54.8
2019-02-17T09:29:36.880Z,54.9
2019-02-17T09:30:26.667Z,55
2019-02-17T09:31:16.683Z,55.1
2019-02-17T09:32:17.897Z,55.3
2019-02-17T09:32:56.325Z,55.4
2019-02-17T09:33:46.870Z,55.4
2019-02-17T09:34:37.277Z,55.6
2019-02-17T09:35:26.035Z,55.7
2019-02-17T09:36:16.847Z,55.8
2019-02-17T09:37:06.352Z,55.9
2019-02-17T09:37:57.187Z,56
2019-02-17T09:38:46.977Z,56.1
2019-02-17T09:39:38.030Z,56.2
2019-02-17T09:40:27.054Z,56.3
2019-02-17T09:41:17.128Z,56.4
2019-02-17T09:42:07.171Z,56.5
2019-02-17T09:42:58.251Z,56.6
2019-02-17T09:43:51.012Z,56.6
2019-02-17T09:44:38.386Z,56.8
2019-02-17T09:45:27.189Z,56.9
2019-02-17T09:46:18.206Z,56.9
2019-02-17T09:47:08.121Z,57
2019-02-17T09:47:58.186Z,57.1
2019-02-17T09:48:48.649Z,57.2
2019-02-17T09:49:38.159Z,57.3
2019-02-17T09:50:28.351Z,57.4
2019-02-17T09:51:17.793Z,57.4
2019-02-17T09:52:08.701Z,57.6
2019-02-17T09:52:57.101Z,57.7
2019-02-17T09:55:28.674Z,57.9
2019-02-17T09:56:18.691Z,57.9
2019-02-17T09:57:08.776Z,58
2019-02-17T09:57:59.040Z,58.1
2019-02-17T09:58:49.828Z,58.2
2019-02-17T09:59:38.851Z,58.2
2019-02-17T10:00:28.746Z,58.3
2019-02-17T10:01:19.323Z,58.4
2019-02-17T10:02:08.015Z,58.4
2019-02-17T10:02:58.884Z,58.4
2019-02-17T10:03:48.153Z,58.5
2019-02-17T10:07:05.788Z,58.8
2019-02-17T10:07:56.488Z,58.9
2019-02-17T10:08:46.795Z,59
2019-02-17T10:09:36.550Z,59.1
2019-02-17T10:10:27.317Z,59.2
2019-02-17T10:11:16.887Z,59.3
2019-02-17T10:12:06.912Z,59.3
2019-02-17T10:12:57.007Z,59.4
2019-02-17T10:13:47.985Z,59.4
2019-02-17T10:14:37.102Z,59.5
2019-02-17T10:15:26.906Z,59.6
2019-02-17T10:16:17.540Z,59.6
2019-02-17T10:17:06.989Z,59.6
2019-02-17T10:17:57.159Z,59.8
2019-02-17T10:18:47.754Z,59.7
2019-02-17T10:19:37.462Z,59.7
2019-02-17T10:20:29.332Z,59.6
2019-02-17T10:21:17.306Z,59.6
2019-02-17T10:22:08.152Z,59.6
2019-02-17T10:22:57.734Z,59.7
2019-02-17T10:24:02.143Z,59.8
2019-02-17T10:24:37.548Z,59.9
2019-02-17T10:25:28.194Z,59.9
2019-02-17T10:26:17.461Z,59.9
2019-02-17T10:27:07.479Z,60
2019-02-17T10:27:57.504Z,60.1
2019-02-17T10:28:47.999Z,60.2
2019-02-17T10:29:38.436Z,60.2
2019-02-17T10:30:28.966Z,60.3
2019-02-17T10:31:17.801Z,60.4
2019-02-17T10:32:07.901Z,60.4
2019-02-17T10:32:58.121Z,60.5
2019-02-17T10:33:49.139Z,60.6
2019-02-17T10:34:38.331Z,60.6
2019-02-17T10:35:28.383Z,60.7
2019-02-17T10:36:18.623Z,60.8
2019-02-17T10:37:08.378Z,60.8
2019-02-17T10:37:59.003Z,60.9
2019-02-17T10:38:48.583Z,60.9
2019-02-17T10:39:38.800Z,61
2019-02-17T10:40:28.958Z,61.1
2019-02-17T10:41:18.968Z,61.2
2019-02-17T10:42:09.003Z,61.3
2019-02-17T10:42:59.340Z,61.3
2019-02-17T10:43:49.175Z,61.3
2019-02-17T10:44:39.475Z,61.4
2019-02-17T10:45:29.310Z,61.5
2019-02-17T10:46:19.117Z,61.6
2019-02-17T10:47:09.647Z,61.6
2019-02-17T10:48:00.013Z,61.7
2019-02-17T10:48:50.417Z,61.8
2019-02-17T10:49:39.253Z,61.8
2019-02-17T10:50:28.759Z,61.8
2019-02-17T10:51:19.695Z,61.9
2019-02-17T10:52:09.805Z,61.9
2019-02-17T10:53:00.040Z,62
2019-02-17T10:53:49.160Z,62.1
2019-02-17T10:54:40.177Z,62.2
2019-02-17T10:55:30.507Z,62.2
2019-02-17T10:56:20.254Z,62.3
2019-02-17T10:57:10.077Z,62.3
2019-02-17T10:58:00.355Z,62.4
2019-02-17T10:58:49.898Z,62.4
2019-02-17T10:59:40.971Z,62.5
2019-02-17T11:00:30.583Z,62.5
2019-02-17T11:01:20.551Z,62.6
2019-02-17T11:02:10.659Z,62.6
2019-02-17T11:03:00.752Z,62.6
2019-02-17T11:03:51.041Z,62.8
2019-02-17T11:04:40.559Z,62.8
2019-02-17T11:05:31.361Z,62.9
2019-02-17T11:06:21.014Z,62.9
2019-02-17T11:07:09.947Z,62.9
2019-02-17T11:08:01.336Z,63
2019-02-17T11:08:51.456Z,63
2019-02-17T11:09:41.286Z,63.1
2019-02-17T11:10:30.704Z,63.1
2019-02-17T11:11:20.814Z,63.1
2019-02-17T11:12:11.856Z,63.3
2019-02-17T11:13:00.918Z,63.3
2019-02-17T11:13:51.468Z,63.3
2019-02-17T11:14:41.161Z,63.3
2019-02-17T11:15:31.281Z,63.4
2019-02-17T11:16:21.918Z,63.4
2019-02-17T11:17:12.258Z,63.5